Time;durP1;ratioP1;P1;durP2;ratioP2;P2;SDS_P1;SDS_P2;PMS_P1;PMS_P2;Temp;Humidity;BMP_temperature;BMP_pressure;BME280_temperature;BME280_humidity;BME280_pressure;Samples;Min_cycle;Max_cycle;Signal;HPM_P1;HPM_P2
2021/05/16 00:02:11;;;;;;;5.20;1.70;;;;;;;;;;6809799;29;20066;-84
2021/05/16 00:05:32;;;;;;;4.68;1.42;;;;;;;;;;6809633;29;20052;-84
2021/05/16 00:08:52;;;;;;;9.63;1.65;;;;;;;;;;6810221;29;20379;-83
2021/05/16 00:12:13;;;;;;;11.85;2.05;;;;;;;;;;6810139;29;20515;-83
2021/05/16 00:15:34;;;;;;;6.95;1.65;;;;;;;;;;6810176;29;20040;-84
2021/05/16 00:18:55;;;;;;;5.45;1.27;;;;;;;;;;6810306;29;20040;-84
2021/05/16 00:22:15;;;;;;;7.65;1.40;;;;;;;;;;6834873;29;20086;-85
2021/05/16 00:25:36;;;;;;;2.58;1.10;;;;;;;;;;6811650;29;20035;-84
2021/05/16 00:32:26;;;;;;;5.47;1.52;;;;;;;;;;8030911;23;20161;-87
2021/05/16 00:35:47;;;;;;;1.77;1.08;;;;;;;;;;6815073;29;20036;-85
2021/05/16 00:39:07;;;;;;;4.03;1.33;;;;;;;;;;6821631;29;20095;-84
2021/05/16 00:42:28;;;;;;;9.82;1.63;;;;;;;;;;6814653;29;20038;-85
2021/05/16 00:45:49;;;;;;;6.60;1.38;;;;;;;;;;6827925;29;20111;-85
2021/05/16 00:49:10;;;;;;;8.95;1.40;;;;;;;;;;6815189;29;20032;-83
2021/05/16 00:52:31;;;;;;;8.00;1.52;;;;;;;;;;6816720;29;20374;-85
2021/05/16 00:55:52;;;;;;;2.00;1.20;;;;;;;;;;6813981;29;20474;-85
2021/05/16 00:59:12;;;;;;;6.47;1.17;;;;;;;;;;6827895;29;20042;-84
2021/05/16 01:02:33;;;;;;;2.83;1.25;;;;;;;;;;6813153;29;20036;-87
2021/05/16 01:05:53;;;;;;;2.72;1.10;;;;;;;;;;6814216;29;20377;-86
2021/05/16 01:09:13;;;;;;;1.13;1.02;;;;;;;;;;6827305;29;20042;-86
2021/05/16 01:12:46;;;;;;;6.40;1.45;;;;;;;;;;6826647;29;20035;-86
2021/05/16 01:16:06;;;;;;;3.42;1.25;;;;;;;;;;6810933;29;20035;-86
2021/05/16 01:19:29;;;;;;;2.17;1.25;;;;;;;;;;6814804;29;20039;-86
2021/05/16 01:22:52;;;;;;;6.97;1.45;;;;;;;;;;6813298;29;20040;-85
2021/05/16 01:26:13;;;;;;;2.80;1.15;;;;;;;;;;6813163;29;20035;-86
2021/05/16 01:29:34;;;;;;;5.82;1.25;;;;;;;;;;6813512;29;20035;-86
2021/05/16 01:32:54;;;;;;;3.45;1.35;;;;;;;;;;6813388;29;20083;-86
2021/05/16 01:36:19;;;;;;;7.78;1.23;;;;;;;;;;6813912;29;20032;-89
2021/05/16 01:39:40;;;;;;;1.38;1.20;;;;;;;;;;6795044;29;20039;-87
2021/05/16 01:43:00;;;;;;;4.95;1.17;;;;;;;;;;6812767;29;20039;-87
2021/05/16 01:46:21;;;;;;;3.45;1.10;;;;;;;;;;6821371;29;20115;-87
2021/05/16 01:49:50;;;;;;;2.97;0.98;;;;;;;;;;6825629;29;20080;-87
2021/05/16 01:53:11;;;;;;;3.88;1.42;;;;;;;;;;6825965;29;20148;-87
2021/05/16 01:56:31;;;;;;;2.33;1.20;;;;;;;;;;6811892;29;20067;-86
2021/05/16 01:59:52;;;;;;;3.05;1.17;;;;;;;;;;6803590;29;20031;-86
2021/05/16 02:03:12;;;;;;;7.53;1.20;;;;;;;;;;6812034;29;20431;-86
2021/05/16 02:06:33;;;;;;;4.60;1.15;;;;;;;;;;6797751;29;20028;-88
2021/05/16 02:09:54;;;;;;;5.97;1.13;;;;;;;;;;6813779;29;20482;-88
2021/05/16 02:13:14;;;;;;;4.90;1.13;;;;;;;;;;6810279;29;20065;-88
2021/05/16 02:16:37;;;;;;;3.00;1.10;;;;;;;;;;6783820;29;20118;-87
2021/05/16 02:19:57;;;;;;;2.97;1.48;;;;;;;;;;6788922;29;20035;-89
2021/05/16 02:23:18;;;;;;;2.55;1.20;;;;;;;;;;6798318;29;20059;-88
2021/05/16 02:26:39;;;;;;;4.05;1.25;;;;;;;;;;6793478;29;20386;-86
2021/05/16 02:29:59;;;;;;;4.78;1.63;;;;;;;;;;6809077;29;20034;-86
2021/05/16 02:33:20;;;;;;;2.05;1.10;;;;;;;;;;6799198;29;20072;-85
2021/05/16 02:36:40;;;;;;;2.63;1.10;;;;;;;;;;6812050;29;20040;-86
2021/05/16 02:40:01;;;;;;;6.18;1.20;;;;;;;;;;6822041;29;20075;-87
2021/05/16 02:43:21;;;;;;;1.83;0.93;;;;;;;;;;6808274;29;20080;-85
2021/05/16 02:46:42;;;;;;;1.30;0.90;;;;;;;;;;6803920;29;20039;-84
2021/05/16 02:50:04;;;;;;;1.77;1.38;;;;;;;;;;6808802;29;20028;-85
2021/05/16 02:53:24;;;;;;;1.27;1.10;;;;;;;;;;6810634;29;20522;-84
2021/05/16 02:56:44;;;;;;;1.30;0.98;;;;;;;;;;6811090;29;20042;-84
2021/05/16 03:00:07;;;;;;;2.30;1.00;;;;;;;;;;6814738;29;20054;-84
2021/05/16 03:03:27;;;;;;;3.38;1.38;;;;;;;;;;6823037;29;20027;-84
2021/05/16 03:06:48;;;;;;;1.65;1.05;;;;;;;;;;6808458;29;20032;-85
2021/05/16 03:10:08;;;;;;;0.93;0.90;;;;;;;;;;6813333;29;20754;-84
2021/05/16 03:13:29;;;;;;;3.08;1.23;;;;;;;;;;6815960;29;20460;-84
2021/05/16 03:16:49;;;;;;;1.30;0.98;;;;;;;;;;6809994;29;20127;-84
2021/05/16 03:20:10;;;;;;;4.32;0.90;;;;;;;;;;6811857;29;20051;-84
2021/05/16 03:23:31;;;;;;;2.17;1.10;;;;;;;;;;6819528;29;20505;-85
2021/05/16 03:26:51;;;;;;;1.55;1.15;;;;;;;;;;6810346;29;20040;-85
2021/05/16 03:30:12;;;;;;;1.73;1.17;;;;;;;;;;6809363;29;20066;-84
2021/05/16 03:33:33;;;;;;;1.85;1.10;;;;;;;;;;6808657;29;20538;-88
2021/05/16 03:36:53;;;;;;;2.60;0.90;;;;;;;;;;6810812;29;20114;-88
2021/05/16 03:40:14;;;;;;;2.08;0.98;;;;;;;;;;6810148;29;20063;-87
2021/05/16 03:43:34;;;;;;;10.82;1.05;;;;;;;;;;6811362;29;20039;-88
2021/05/16 03:46:55;;;;;;;2.72;1.00;;;;;;;;;;6827626;29;20063;-87
2021/05/16 03:50:15;;;;;;;1.30;1.10;;;;;;;;;;6801333;29;20423;-87
2021/05/16 03:53:37;;;;;;;1.35;0.90;;;;;;;;;;6816438;29;20028;-86
2021/05/16 03:56:58;;;;;;;5.25;1.40;;;;;;;;;;6814069;29;20040;-89
2021/05/16 04:00:19;;;;;;;2.58;1.13;;;;;;;;;;6825798;29;20114;-88
2021/05/16 04:03:39;;;;;;;6.43;1.10;;;;;;;;;;6815236;29;20062;-88
2021/05/16 04:07:00;;;;;;;1.45;1.02;;;;;;;;;;6816052;29;20027;-87
2021/05/16 04:10:20;;;;;;;11.13;1.08;;;;;;;;;;6815305;29;20032;-87
2021/05/16 04:13:41;;;;;;;1.13;1.02;;;;;;;;;;6806240;29;20371;-86
2021/05/16 04:17:01;;;;;;;7.32;1.13;;;;;;;;;;6822266;29;20103;-86
2021/05/16 04:20:22;;;;;;;1.10;0.90;;;;;;;;;;6815054;29;20034;-86
2021/05/16 04:23:42;;;;;;;2.22;1.27;;;;;;;;;;6815251;29;20126;-86
2021/05/16 04:27:03;;;;;;;3.83;1.30;;;;;;;;;;6813918;29;20051;-86
2021/05/16 04:30:23;;;;;;;6.55;1.00;;;;;;;;;;6814458;29;20040;-87
2021/05/16 04:33:44;;;;;;;0.90;0.90;;;;;;;;;;6823812;29;20055;-87
2021/05/16 04:37:04;;;;;;;1.10;0.90;;;;;;;;;;6815388;29;20368;-86
2021/05/16 04:40:25;;;;;;;5.88;0.95;;;;;;;;;;6814215;29;20390;-87
2021/05/16 04:43:45;;;;;;;0.88;0.88;;;;;;;;;;6813906;29;20032;-86
2021/05/16 04:47:06;;;;;;;1.23;0.95;;;;;;;;;;6815411;29;20031;-86
2021/05/16 04:50:27;;;;;;;1.55;1.10;;;;;;;;;;6827432;29;20024;-86
2021/05/16 04:53:47;;;;;;;1.05;1.00;;;;;;;;;;6817055;29;20059;-86
2021/05/16 04:57:07;;;;;;;2.00;1.23;;;;;;;;;;6814544;29;20051;-86
2021/05/16 05:00:28;;;;;;;0.85;0.77;;;;;;;;;;6813927;29;20059;-87
2021/05/16 05:03:48;;;;;;;3.85;1.10;;;;;;;;;;6815577;29;20056;-85
2021/05/16 05:07:09;;;;;;;1.58;1.17;;;;;;;;;;6813871;29;20032;-88
2021/05/16 05:10:29;;;;;;;2.65;0.90;;;;;;;;;;6813718;29;20059;-86
2021/05/16 05:13:50;;;;;;;1.00;0.90;;;;;;;;;;6812382;29;20382;-89
2021/05/16 05:17:10;;;;;;;1.65;0.93;;;;;;;;;;6813794;29;20024;-88
2021/05/16 05:20:30;;;;;;;3.65;1.20;;;;;;;;;;6813499;29;20465;-87
2021/05/16 05:23:51;;;;;;;1.55;1.02;;;;;;;;;;6818747;29;20046;-90
2021/05/16 05:27:11;;;;;;;2.38;1.02;;;;;;;;;;6826859;29;20150;-86
2021/05/16 05:30:32;;;;;;;1.42;1.15;;;;;;;;;;6826544;29;20055;-88
2021/05/16 05:33:52;;;;;;;3.28;1.10;;;;;;;;;;6815017;29;20163;-87
2021/05/16 05:37:13;;;;;;;2.10;2.00;;;;;;;;;;6803218;29;20036;-89
2021/05/16 05:40:33;;;;;;;5.28;2.55;;;;;;;;;;6813420;29;20039;-89
2021/05/16 05:43:53;;;;;;;2.63;2.28;;;;;;;;;;6813996;29;20119;-89
2021/05/16 05:47:15;;;;;;;6.88;6.38;;;;;;;;;;6808076;29;20039;-88
2021/05/16 05:50:35;;;;;;;4.25;3.97;;;;;;;;;;6810381;29;20031;-88
2021/05/16 05:53:56;;;;;;;2.30;2.10;;;;;;;;;;6804653;29;20023;-88
2021/05/16 05:57:17;;;;;;;2.10;1.90;;;;;;;;;;6812065;29;20120;-87
2021/05/16 06:00:38;;;;;;;2.17;1.98;;;;;;;;;;6808559;29;20047;-88
2021/05/16 06:03:58;;;;;;;3.58;2.10;;;;;;;;;;6813182;29;20144;-89
2021/05/16 06:07:19;;;;;;;1.98;1.83;;;;;;;;;;6804550;29;20024;-87
2021/05/16 06:10:39;;;;;;;2.55;1.98;;;;;;;;;;6809393;29;20073;-86
2021/05/16 06:13:59;;;;;;;15.50;8.55;;;;;;;;;;6810592;29;20446;-84
2021/05/16 06:17:20;;;;;;;9.70;6.25;;;;;;;;;;6811139;29;20477;-85
2021/05/16 06:20:41;;;;;;;8.77;6.25;;;;;;;;;;6811067;29;20086;-85
2021/05/16 06:27:22;;;;;;;10.32;6.70;;;;;;;;;;6795454;29;20054;-84
2021/05/16 06:30:42;;;;;;;17.92;9.82;;;;;;;;;;6803207;29;20114;-84
2021/05/16 06:34:03;;;;;;;14.00;9.43;;;;;;;;;;6804881;29;20044;-83
2021/05/16 06:37:24;;;;;;;17.33;7.50;;;;;;;;;;6802902;29;20148;-84
2021/05/16 06:40:44;;;;;;;10.52;7.57;;;;;;;;;;6798742;29;20093;-84
2021/05/16 06:44:05;;;;;;;11.45;7.13;;;;;;;;;;6808677;29;20038;-84
2021/05/16 06:47:25;;;;;;;12.10;8.02;;;;;;;;;;6808310;29;20028;-84
2021/05/16 06:50:46;;;;;;;12.65;7.70;;;;;;;;;;6803427;29;20051;-84
2021/05/16 06:54:06;;;;;;;13.55;7.22;;;;;;;;;;6805869;29;20452;-84
2021/05/16 06:57:27;;;;;;;8.38;7.47;;;;;;;;;;6788266;29;20024;-85
2021/05/16 07:00:47;;;;;;;11.63;6.35;;;;;;;;;;6803375;29;20046;-83
2021/05/16 07:04:08;;;;;;;22.27;6.70;;;;;;;;;;6800692;29;20098;-82
2021/05/16 07:07:29;;;;;;;15.30;8.55;;;;;;;;;;6810062;29;20118;-81
2021/05/16 07:10:49;;;;;;;11.43;7.72;;;;;;;;;;6793852;29;20036;-81
2021/05/16 07:14:10;;;;;;;12.60;8.38;;;;;;;;;;6790879;29;20038;-82
2021/05/16 07:17:30;;;;;;;10.30;8.55;;;;;;;;;;6809605;29;20114;-81
2021/05/16 07:20:51;;;;;;;9.38;6.93;;;;;;;;;;6809756;29;20046;-81
2021/05/16 07:24:11;;;;;;;13.10;5.03;;;;;;;;;;6810323;29;20103;-82
2021/05/16 07:27:32;;;;;;;11.43;5.22;;;;;;;;;;6809366;29;20107;-81
2021/05/16 07:30:53;;;;;;;9.15;4.55;;;;;;;;;;6807392;29;20032;-81
2021/05/16 07:34:13;;;;;;;14.75;4.78;;;;;;;;;;6802065;29;20494;-81
2021/05/16 07:37:33;;;;;;;6.25;3.58;;;;;;;;;;6809492;29;20052;-81
2021/05/16 07:40:55;;;;;;;6.38;3.65;;;;;;;;;;6822995;29;20470;-80
2021/05/16 07:44:15;;;;;;;9.23;3.67;;;;;;;;;;6811504;29;20031;-81
2021/05/16 07:47:35;;;;;;;6.75;3.80;;;;;;;;;;6810356;29;20046;-80
2021/05/16 07:50:57;;;;;;;7.25;3.75;;;;;;;;;;6810787;29;20118;-81
2021/05/16 07:54:18;;;;;;;5.72;3.28;;;;;;;;;;6809131;29;20136;-81
2021/05/16 07:57:38;;;;;;;8.40;3.35;;;;;;;;;;6820749;29;20156;-81
2021/05/16 08:00:59;;;;;;;7.60;2.45;;;;;;;;;;6811599;29;20027;-81
2021/05/16 08:04:19;;;;;;;5.70;2.70;;;;;;;;;;6809608;29;20111;-81
2021/05/16 08:07:40;;;;;;;5.88;2.90;;;;;;;;;;6809330;29;20036;-80
2021/05/16 08:11:00;;;;;;;16.92;3.33;;;;;;;;;;6809644;29;20123;-81
2021/05/16 08:14:20;;;;;;;7.72;2.75;;;;;;;;;;6808818;29;20028;-81
2021/05/16 08:17:41;;;;;;;5.18;2.42;;;;;;;;;;6809811;29;20051;-81
2021/05/16 08:21:02;;;;;;;8.45;2.90;;;;;;;;;;6797495;29;20169;-81
2021/05/16 08:24:22;;;;;;;7.45;2.20;;;;;;;;;;6809325;29;20032;-81
2021/05/16 08:27:43;;;;;;;3.25;2.20;;;;;;;;;;6809044;29;20035;-81
2021/05/16 08:31:03;;;;;;;6.88;2.58;;;;;;;;;;6810089;29;20024;-81
2021/05/16 08:34:24;;;;;;;4.95;2.13;;;;;;;;;;6808633;29;20067;-81
2021/05/16 08:37:45;;;;;;;5.50;2.20;;;;;;;;;;6798133;29;20114;-80
2021/05/16 08:41:06;;;;;;;4.43;2.53;;;;;;;;;;6808484;29;20058;-81
2021/05/16 08:44:26;;;;;;;6.85;2.38;;;;;;;;;;6808026;29;20036;-81
2021/05/16 08:47:47;;;;;;;4.50;2.30;;;;;;;;;;6811583;29;20087;-81
2021/05/16 08:51:07;;;;;;;3.15;2.08;;;;;;;;;;6811209;29;20477;-81
2021/05/16 08:54:28;;;;;;;3.25;1.95;;;;;;;;;;6801198;29;20426;-81
2021/05/16 08:57:48;;;;;;;3.33;2.03;;;;;;;;;;6813066;29;20056;-81
2021/05/16 09:01:25;;;;;;;5.78;2.17;;;;;;;;;;6813351;29;20067;-80
2021/05/16 09:04:46;;;;;;;3.50;2.05;;;;;;;;;;6802168;29;20032;-81
2021/05/16 09:08:16;;;;;;;4.00;1.70;;;;;;;;;;6826686;29;20448;-81
2021/05/16 09:11:52;;;;;;;2.53;1.55;;;;;;;;;;6813052;29;20028;-81
2021/05/16 09:15:12;;;;;;;3.38;2.00;;;;;;;;;;6802245;29;20039;-81
2021/05/16 09:18:40;;;;;;;12.60;2.13;;;;;;;;;;6825579;29;20066;-80
2021/05/16 09:22:00;;;;;;;4.05;2.00;;;;;;;;;;6808401;29;20035;-81
2021/05/16 09:25:25;;;;;;;6.85;2.15;;;;;;;;;;6800336;29;20036;-80
2021/05/16 09:28:46;;;;;;;8.10;2.03;;;;;;;;;;6811659;29;20079;-81
2021/05/16 09:32:08;;;;;;;3.20;1.95;;;;;;;;;;6801275;29;20138;-81
2021/05/16 09:35:47;;;;;;;5.43;2.05;;;;;;;;;;6813043;29;20035;-80
2021/05/16 09:39:19;;;;;;;;;;;;;;;;;;6802889;29;20032;-81
2021/05/16 09:42:40;;;;;;;1.98;1.77;;;;;;;;;;6806198;29;19923;-81
2021/05/16 09:46:05;;;;;;;4.00;2.28;;;;;;;;;;6803744;29;20047;-81
2021/05/16 09:49:25;;;;;;;2.80;1.88;;;;;;;;;;6812118;29;20040;-81
2021/05/16 09:52:58;;;;;;;6.22;2.10;;;;;;;;;;6811880;29;20023;-81
2021/05/16 09:56:21;;;;;;;3.97;1.70;;;;;;;;;;6810607;29;20120;-81
2021/05/16 09:59:41;;;;;;;2.60;1.60;;;;;;;;;;6809133;29;20040;-81
2021/05/16 10:03:06;;;;;;;5.22;1.90;;;;;;;;;;6810706;29;20043;-81
2021/05/16 10:06:28;;;;;;;2.58;1.65;;;;;;;;;;6822642;29;20031;-80
2021/05/16 10:09:49;;;;;;;4.25;1.60;;;;;;;;;;6811239;29;20549;-81
2021/05/16 10:13:09;;;;;;;1.98;1.75;;;;;;;;;;6811333;29;20118;-81
2021/05/16 10:16:39;;;;;;;3.55;1.88;;;;;;;;;;6810434;29;20042;-81
2021/05/16 10:20:01;;;;;;;1.73;1.63;;;;;;;;;;6813442;29;20036;-81
2021/05/16 10:23:47;;;;;;;1.80;1.52;;;;;;;;;;6794607;29;20046;-81
2021/05/16 10:27:20;;;;;;;2.83;1.67;;;;;;;;;;6801050;29;20044;-79
2021/05/16 10:30:59;;;;;;;3.13;1.77;;;;;;;;;;6809303;29;20036;-79
2021/05/16 10:34:36;;;;;;;2.97;2.00;;;;;;;;;;6810483;29;20044;-78
2021/05/16 10:37:57;;;;;;;3.08;1.80;;;;;;;;;;6810681;29;20382;-78
2021/05/16 10:41:18;;;;;;;2.45;1.73;;;;;;;;;;6810084;29;20493;-78
2021/05/16 10:44:54;;;;;;;2.00;1.38;;;;;;;;;;6810667;29;20032;-78
2021/05/16 10:48:16;;;;;;;5.35;1.80;;;;;;;;;;6810239;29;20039;-80
2021/05/16 10:51:37;;;;;;;2.40;1.92;;;;;;;;;;6800344;29;20125;-81
2021/05/16 10:54:57;;;;;;;4.70;1.90;;;;;;;;;;6808418;29;20032;-84
2021/05/16 10:58:33;;;;;;;13.85;2.83;;;;;;;;;;6802139;29;20059;-81
2021/05/16 11:01:53;;;;;;;6.60;2.60;;;;;;;;;;6808938;29;20118;-84
2021/05/16 11:09:04;;;;;;;6.05;2.65;;;;;;;;;;6823583;29;20454;-84
2021/05/16 11:12:29;;;;;;;16.42;2.40;;;;;;;;;;6805391;29;20505;-83
2021/05/16 11:15:59;;;;;;;4.13;2.13;;;;;;;;;;6802091;29;20039;-84
2021/05/16 11:19:21;;;;;;;6.55;2.35;;;;;;;;;;6802492;29;20058;-83
2021/05/16 11:22:42;;;;;;;3.88;2.20;;;;;;;;;;6815315;29;20115;-83
2021/05/16 11:26:04;;;;;;;4.78;2.30;;;;;;;;;;6806038;29;20047;-83
2021/05/16 11:29:25;;;;;;;4.15;2.20;;;;;;;;;;6806121;29;20035;-84
2021/05/16 11:32:45;;;;;;;6.03;2.25;;;;;;;;;;6808129;29;20474;-84
2021/05/16 11:36:08;;;;;;;7.43;2.40;;;;;;;;;;6808504;29;20024;-82
2021/05/16 11:39:28;;;;;;;6.22;2.50;;;;;;;;;;6802034;29;20034;-81
2021/05/16 11:42:59;;;;;;;10.50;2.40;;;;;;;;;;6806203;29;20378;-81
2021/05/16 11:46:28;;;;;;;8.23;2.85;;;;;;;;;;6807160;29;20406;-82
2021/05/16 11:49:49;;;;;;;5.05;2.58;;;;;;;;;;6800908;29;20044;-82
2021/05/16 11:53:10;;;;;;;16.75;4.97;;;;;;;;;;6809675;29;20039;-82
2021/05/16 11:56:36;;;;;;;6.72;3.20;;;;;;;;;;6787303;29;20036;-82
2021/05/16 11:59:57;;;;;;;6.30;2.90;;;;;;;;;;6782482;29;20489;-82
2021/05/16 12:03:17;;;;;;;8.23;3.53;;;;;;;;;;6790182;29;20088;-82
2021/05/16 12:06:52;;;;;;;9.95;3.70;;;;;;;;;;6799313;29;20043;-82
2021/05/16 12:10:19;;;;;;;6.72;3.90;;;;;;;;;;6808991;29;20061;-82
2021/05/16 12:13:39;;;;;;;5.07;2.97;;;;;;;;;;6807666;29;20023;-82
2021/05/16 12:17:02;;;;;;;8.02;3.78;;;;;;;;;;6807641;29;20032;-82
2021/05/16 12:20:24;;;;;;;6.63;3.67;;;;;;;;;;6809150;29;20052;-82
2021/05/16 12:23:51;;;;;;;8.07;3.72;;;;;;;;;;6816656;29;20043;-81
2021/05/16 12:27:19;;;;;;;8.38;3.97;;;;;;;;;;6824127;29;20032;-82
2021/05/16 12:30:39;;;;;;;6.43;3.63;;;;;;;;;;7584608;23;20016;-85
2021/05/16 12:34:02;;;;;;;12.73;3.55;;;;;;;;;;6813455;29;20027;-85
2021/05/16 12:37:24;;;;;;;7.57;3.75;;;;;;;;;;6814406;29;20083;-84
2021/05/16 12:40:45;;;;;;;9.15;3.55;;;;;;;;;;6772071;29;20040;-85
2021/05/16 12:44:08;;;;;;;5.13;3.38;;;;;;;;;;6809100;29;20027;-84
2021/05/16 12:47:29;;;;;;;5.72;3.45;;;;;;;;;;6799034;29;20110;-84
2021/05/16 12:50:52;;;;;;;5.75;3.33;;;;;;;;;;6796351;29;20031;-83
2021/05/16 12:54:17;;;;;;;5.57;3.38;;;;;;;;;;6801524;29;20032;-83
2021/05/16 13:00:58;;;;;;;4.25;2.70;;;;;;;;;;6803451;29;20121;-82
2021/05/16 13:04:20;;;;;;;4.68;3.05;;;;;;;;;;6801949;29;20099;-83
2021/05/16 13:07:51;;;;;;;3.70;2.92;;;;;;;;;;6794878;29;20035;-83
2021/05/16 13:11:11;;;;;;;9.27;3.50;;;;;;;;;;6804920;29;20028;-83
2021/05/16 13:14:39;;;;;;;4.85;2.90;;;;;;;;;;6803799;29;20040;-82
2021/05/16 13:18:20;;;;;;;8.02;3.45;;;;;;;;;;6797511;29;20020;-83
2021/05/16 13:21:46;;;;;;;6.15;2.85;;;;;;;;;;6797114;29;20032;-83
2021/05/16 13:25:08;;;;;;;5.03;3.20;;;;;;;;;;6799634;29;20031;-84
2021/05/16 13:28:29;;;;;;;5.20;3.05;;;;;;;;;;6800592;29;20063;-83
2021/05/16 13:31:50;;;;;;;5.00;2.80;;;;;;;;;;6809644;29;20095;-81
2021/05/16 13:35:11;;;;;;;4.43;2.88;;;;;;;;;;6803519;29;20493;-82
2021/05/16 13:38:33;;;;;;;4.53;2.65;;;;;;;;;;6793880;29;20047;-82
2021/05/16 13:41:59;;;;;;;4.07;2.60;;;;;;;;;;6799324;29;20032;-82
2021/05/16 13:45:19;;;;;;;4.60;2.50;;;;;;;;;;6803428;29;20039;-81
2021/05/16 13:48:40;;;;;;;3.63;2.30;;;;;;;;;;6775460;29;20127;-82
2021/05/16 13:52:00;;;;;;;4.57;2.40;;;;;;;;;;6793408;29;20030;-80
2021/05/16 13:55:21;;;;;;;10.70;2.28;;;;;;;;;;6810450;29;20566;-84
2021/05/16 13:58:41;;;;;;;5.75;2.35;;;;;;;;;;6802505;29;20115;-82
2021/05/16 14:02:01;;;;;;;8.50;2.40;;;;;;;;;;6794711;29;20078;-83
2021/05/16 14:05:22;;;;;;;8.57;2.40;;;;;;;;;;6800507;29;20035;-83
2021/05/16 14:08:42;;;;;;;6.03;2.30;;;;;;;;;;6804875;29;20430;-83
2021/05/16 14:12:03;;;;;;;7.03;2.20;;;;;;;;;;6796323;29;20058;-83
2021/05/16 14:15:24;;;;;;;4.03;2.47;;;;;;;;;;6797570;29;20036;-81
2021/05/16 14:18:44;;;;;;;5.07;2.60;;;;;;;;;;6792365;29;20071;-81
2021/05/16 14:22:05;;;;;;;5.95;2.35;;;;;;;;;;6801799;29;20040;-82
2021/05/16 14:25:25;;;;;;;9.55;2.40;;;;;;;;;;6804696;29;20111;-83
2021/05/16 14:28:46;;;;;;;8.50;2.50;;;;;;;;;;6798694;29;20028;-83
2021/05/16 14:32:06;;;;;;;2.88;2.38;;;;;;;;;;6797411;29;20055;-82
2021/05/16 14:35:27;;;;;;;8.15;2.42;;;;;;;;;;6791563;29;20028;-82
2021/05/16 14:38:47;;;;;;;4.50;2.30;;;;;;;;;;6813178;29;20110;-81
2021/05/16 14:42:08;;;;;;;2.97;1.98;;;;;;;;;;6796560;29;20040;-80
2021/05/16 14:45:28;;;;;;;4.47;2.20;;;;;;;;;;6810368;29;20047;-81
2021/05/16 14:48:49;;;;;;;6.15;2.55;;;;;;;;;;6796265;29;20036;-81
2021/05/16 14:52:09;;;;;;;4.82;2.30;;;;;;;;;;6797541;29;20529;-81
2021/05/16 14:55:29;;;;;;;7.15;2.28;;;;;;;;;;6793895;29;20099;-80
2021/05/16 14:58:50;;;;;;;4.55;3.28;;;;;;;;;;6791550;29;20056;-85
2021/05/16 15:02:11;;;;;;;5.90;3.20;;;;;;;;;;6790878;29;20105;-84
2021/05/16 15:05:31;;;;;;;8.43;3.80;;;;;;;;;;6803901;29;20082;-84
2021/05/16 15:08:53;;;;;;;5.85;4.00;;;;;;;;;;6811894;29;20043;-84
2021/05/16 15:12:14;;;;;;;8.27;4.90;;;;;;;;;;6802681;29;20435;-86
2021/05/16 15:15:34;;;;;;;9.50;4.57;;;;;;;;;;6796632;29;20485;-84
2021/05/16 15:18:55;;;;;;;9.50;5.07;;;;;;;;;;6803709;29;20064;-86
2021/05/16 15:22:17;;;;;;;9.38;4.93;;;;;;;;;;6806282;29;20044;-83
2021/05/16 15:25:37;;;;;;;10.57;4.22;;;;;;;;;;6809482;29;20024;-82
2021/05/16 15:28:57;;;;;;;7.45;5.03;;;;;;;;;;6803233;29;20035;-81
2021/05/16 15:32:18;;;;;;;6.53;3.40;;;;;;;;;;6796162;29;20134;-83
2021/05/16 15:35:39;;;;;;;7.57;4.65;;;;;;;;;;6799855;29;20047;-82
2021/05/16 15:39:01;;;;;;;12.52;4.97;;;;;;;;;;6806000;29;20151;-82
2021/05/16 15:42:21;;;;;;;7.55;4.47;;;;;;;;;;6807751;29;20044;-82
2021/05/16 15:45:41;;;;;;;7.72;4.40;;;;;;;;;;6804601;29;20173;-83
2021/05/16 15:49:02;;;;;;;7.90;4.43;;;;;;;;;;6800860;29;20434;-82
2021/05/16 15:52:22;;;;;;;8.63;4.85;;;;;;;;;;6793495;29;20032;-82
2021/05/16 15:55:43;;;;;;;7.43;4.38;;;;;;;;;;6809338;29;20035;-83
2021/05/16 15:59:03;;;;;;;9.18;4.55;;;;;;;;;;6800031;29;20034;-82
2021/05/16 16:02:23;;;;;;;9.50;4.97;;;;;;;;;;6816427;29;20053;-83
2021/05/16 16:05:44;;;;;;;9.93;4.57;;;;;;;;;;6812570;29;20433;-83
2021/05/16 16:09:05;;;;;;;8.75;4.43;;;;;;;;;;6811530;29;20131;-83
2021/05/16 16:12:25;;;;;;;6.70;4.07;;;;;;;;;;6812996;29;20035;-84
2021/05/16 16:15:45;;;;;;;9.02;4.20;;;;;;;;;;6812533;29;20075;-83
2021/05/16 16:19:06;;;;;;;11.35;5.15;;;;;;;;;;6799248;29;20047;-83
2021/05/16 16:22:26;;;;;;;8.35;4.75;;;;;;;;;;6804786;29;20127;-84
2021/05/16 16:25:49;;;;;;;15.20;4.55;;;;;;;;;;6806256;29;20032;-84
2021/05/16 16:29:09;;;;;;;9.98;4.35;;;;;;;;;;6808003;29;20035;-83
2021/05/16 16:32:30;;;;;;;9.15;4.45;;;;;;;;;;6806410;29;20059;-83
2021/05/16 16:35:50;;;;;;;8.40;3.95;;;;;;;;;;6808765;29;20067;-83
2021/05/16 16:39:11;;;;;;;7.30;4.72;;;;;;;;;;6814041;29;20090;-83
2021/05/16 16:42:31;;;;;;;9.38;4.35;;;;;;;;;;6810418;29;20130;-83
2021/05/16 16:45:51;;;;;;;6.35;4.35;;;;;;;;;;6813804;29;20040;-83
2021/05/16 16:49:12;;;;;;;5.75;2.97;;;;;;;;;;6814469;29;20067;-83
2021/05/16 16:52:33;;;;;;;6.07;3.00;;;;;;;;;;6813598;29;20126;-83
2021/05/16 16:55:53;;;;;;;5.40;2.75;;;;;;;;;;6796845;29;20027;-83
2021/05/16 16:59:14;;;;;;;4.43;2.17;;;;;;;;;;6805420;29;20082;-83
2021/05/16 17:02:35;;;;;;;3.60;2.33;;;;;;;;;;6795173;29;20115;-85
2021/05/16 17:05:55;;;;;;;3.38;2.30;;;;;;;;;;6805544;29;20489;-82
2021/05/16 17:09:16;;;;;;;4.57;2.38;;;;;;;;;;6813221;29;20066;-82
2021/05/16 17:12:36;;;;;;;4.78;2.35;;;;;;;;;;6808097;29;20028;-82
2021/05/16 17:15:57;;;;;;;6.03;2.85;;;;;;;;;;6813074;29;20160;-82
2021/05/16 17:19:19;;;;;;;7.80;3.05;;;;;;;;;;6813333;29;20039;-83
2021/05/16 17:22:39;;;;;;;7.75;3.00;;;;;;;;;;6813831;29;20103;-82
2021/05/16 17:26:00;;;;;;;4.75;3.35;;;;;;;;;;6796114;29;20027;-82
2021/05/16 17:29:23;;;;;;;6.82;2.85;;;;;;;;;;6795535;29;20035;-81
2021/05/16 17:32:44;;;;;;;7.38;3.17;;;;;;;;;;6792917;29;20147;-82
2021/05/16 17:36:05;;;;;;;3.92;2.70;;;;;;;;;;6798048;29;20040;-81
2021/05/16 17:39:25;;;;;;;6.68;2.75;;;;;;;;;;6807484;29;20079;-82
2021/05/16 17:42:46;;;;;;;3.63;1.95;;;;;;;;;;6797419;29;20473;-79
2021/05/16 17:46:08;;;;;;;4.05;2.08;;;;;;;;;;6803256;29;20042;-81
2021/05/16 17:49:29;;;;;;;3.75;2.30;;;;;;;;;;6801693;29;20035;-81
2021/05/16 17:52:49;;;;;;;5.82;2.33;;;;;;;;;;6794066;29;20039;-81
2021/05/16 17:56:11;;;;;;;3.30;1.92;;;;;;;;;;6794533;29;20527;-81
2021/05/16 17:59:31;;;;;;;2.10;1.77;;;;;;;;;;6803775;29;20400;-81
2021/05/16 18:02:52;;;;;;;3.28;1.80;;;;;;;;;;6799430;29;20457;-81
2021/05/16 18:06:16;;;;;;;3.45;2.20;;;;;;;;;;6805505;29;20042;-81
2021/05/16 18:09:37;;;;;;;5.55;2.08;;;;;;;;;;6811448;29;20043;-80
2021/05/16 18:12:57;;;;;;;4.22;2.13;;;;;;;;;;6824963;29;20118;-80
2021/05/16 18:16:18;;;;;;;3.33;1.85;;;;;;;;;;6817608;29;20063;-81
2021/05/16 18:19:38;;;;;;;3.67;1.83;;;;;;;;;;6822581;29;20059;-81
2021/05/16 18:22:59;;;;;;;5.28;1.88;;;;;;;;;;6822379;29;20048;-80
2021/05/16 18:26:19;;;;;;;5.85;2.08;;;;;;;;;;6811167;29;20484;-80
2021/05/16 18:29:40;;;;;;;2.88;1.80;;;;;;;;;;6793313;29;20485;-81
2021/05/16 18:33:02;;;;;;;2.78;1.67;;;;;;;;;;6813894;29;20386;-81
2021/05/16 18:36:22;;;;;;;5.70;2.08;;;;;;;;;;6798296;29;20028;-81
2021/05/16 18:39:42;;;;;;;2.85;2.05;;;;;;;;;;6808156;29;20423;-81
2021/05/16 18:43:03;;;;;;;1.60;1.40;;;;;;;;;;6811577;29;20176;-79
2021/05/16 18:46:24;;;;;;;1.73;1.50;;;;;;;;;;6805983;29;20024;-80
2021/05/16 18:49:45;;;;;;;3.13;1.75;;;;;;;;;;6808500;29;20561;-78
2021/05/16 18:53:06;;;;;;;5.13;1.60;;;;;;;;;;6807449;29;20170;-78
2021/05/16 18:56:26;;;;;;;3.67;1.70;;;;;;;;;;6809954;29;20034;-78
2021/05/16 18:59:47;;;;;;;5.22;1.83;;;;;;;;;;6809880;29;20059;-78
2021/05/16 19:03:07;;;;;;;2.22;1.70;;;;;;;;;;6805542;29;20039;-79
2021/05/16 19:06:28;;;;;;;1.90;1.60;;;;;;;;;;6810262;29;20450;-79
2021/05/16 19:09:48;;;;;;;3.95;1.90;;;;;;;;;;6810435;29;20796;-79
2021/05/16 19:13:13;;;;;;;2.42;1.75;;;;;;;;;;6810932;29;20106;-80
2021/05/16 19:16:33;;;;;;;6.38;1.60;;;;;;;;;;6811485;29;20111;-80
2021/05/16 19:19:53;;;;;;;3.47;1.60;;;;;;;;;;6813330;29;20043;-79
2021/05/16 19:23:14;;;;;;;3.08;1.75;;;;;;;;;;6816849;29;20031;-78
2021/05/16 19:26:34;;;;;;;1.95;1.35;;;;;;;;;;6819628;29;20485;-78
2021/05/16 19:29:55;;;;;;;3.85;1.90;;;;;;;;;;6810024;29;20079;-78
2021/05/16 19:33:16;;;;;;;1.50;1.40;;;;;;;;;;6809265;29;20453;-78
2021/05/16 19:36:36;;;;;;;1.40;1.30;;;;;;;;;;6808825;29;20063;-79
2021/05/16 19:39:56;;;;;;;2.55;1.42;;;;;;;;;;6804837;29;20501;-79
2021/05/16 19:43:17;;;;;;;2.78;1.55;;;;;;;;;;6804306;29;20044;-79
2021/05/16 19:46:38;;;;;;;2.88;1.70;;;;;;;;;;6804497;29;20060;-81
2021/05/16 19:50:01;;;;;;;1.85;1.27;;;;;;;;;;6805178;29;20445;-78
2021/05/16 19:53:21;;;;;;;1.83;1.48;;;;;;;;;;6804767;29;20063;-79
2021/05/16 19:56:43;;;;;;;3.88;1.40;;;;;;;;;;6810140;29;20040;-79
2021/05/16 20:00:07;;;;;;;3.92;1.60;;;;;;;;;;6810520;29;20036;-81
2021/05/16 20:03:28;;;;;;;1.83;1.50;;;;;;;;;;6818830;29;20393;-80
2021/05/16 20:06:49;;;;;;;3.60;1.40;;;;;;;;;;6817856;29;20036;-81
2021/05/16 20:10:11;;;;;;;4.40;1.70;;;;;;;;;;6804128;29;20115;-82
2021/05/16 20:13:32;;;;;;;3.45;1.40;;;;;;;;;;6801837;29;20119;-81
2021/05/16 20:16:52;;;;;;;6.80;1.50;;;;;;;;;;6804141;29;20058;-81
2021/05/16 20:20:16;;;;;;;1.80;1.70;;;;;;;;;;6810464;29;20118;-79
2021/05/16 20:23:36;;;;;;;5.38;1.77;;;;;;;;;;6810557;29;20044;-80